createdAt,value
2023-05-15T00:00:22.807Z,14.50
2023-05-15T00:03:11.780Z,14.48
2023-05-15T00:05:39.379Z,14.44
2023-05-15T00:08:06.620Z,14.42
2023-05-15T00:10:34.131Z,14.39
2023-05-15T00:13:01.341Z,14.31
2023-05-15T00:15:28.621Z,14.25
2023-05-15T00:17:56.100Z,14.21
2023-05-15T00:20:23.367Z,14.17
2023-05-15T00:22:50.666Z,14.09
2023-05-15T00:25:19.202Z,14.03
2023-05-15T00:27:46.724Z,14.00
2023-05-15T00:30:14.312Z,13.96
2023-05-15T00:32:43.072Z,13.97
2023-05-15T00:35:11.134Z,13.98
2023-05-15T00:37:38.689Z,13.99
2023-05-15T00:40:07.675Z,13.99
2023-05-15T00:42:35.439Z,13.94
2023-05-15T00:45:03.259Z,13.84
2023-05-15T00:47:32.604Z,13.75
2023-05-15T00:50:00.262Z,13.68
2023-05-15T00:52:29.190Z,13.65
2023-05-15T00:54:57.062Z,13.59
2023-05-15T00:57:27.156Z,13.53
2023-05-15T00:59:57.017Z,13.52
2023-05-15T01:02:27.076Z,13.48
2023-05-15T01:04:54.570Z,13.43
2023-05-15T01:07:22.145Z,13.35
2023-05-15T01:09:51.491Z,13.32
2023-05-15T01:12:21.245Z,13.32
2023-05-15T01:14:49.541Z,13.27
2023-05-15T01:17:16.797Z,13.27
2023-05-15T01:19:46.539Z,13.26
2023-05-15T01:22:25.870Z,13.21
2023-05-15T01:25:30.804Z,13.17
2023-05-15T01:28:06.946Z,13.17
2023-05-15T01:30:38.290Z,13.17
2023-05-15T01:33:12.463Z,13.21
2023-05-15T01:35:58.913Z,13.21
2023-05-15T01:38:35.863Z,13.19
2023-05-15T01:41:11.376Z,13.20
2023-05-15T01:43:41.975Z,13.22
2023-05-15T01:46:13.061Z,13.28
2023-05-15T01:48:43.536Z,13.31
2023-05-15T01:51:11.787Z,13.31
2023-05-15T01:53:43.231Z,13.30
2023-05-15T01:56:14.966Z,13.20
2023-05-15T01:58:43.912Z,13.13
2023-05-15T02:01:13.057Z,13.07
2023-05-15T02:03:41.984Z,13.05
2023-05-15T02:06:09.608Z,13.02
2023-05-15T02:08:37.460Z,13.04
2023-05-15T02:11:06.342Z,13.05
2023-05-15T02:13:34.527Z,13.03
2023-05-15T02:16:01.897Z,13.03
2023-05-15T02:18:29.630Z,13.07
2023-05-15T02:21:00.599Z,13.02
2023-05-15T02:23:28.185Z,12.98
2023-05-15T02:26:21.102Z,12.95
2023-05-15T02:29:17.306Z,12.96
2023-05-15T02:32:06.172Z,12.99
2023-05-15T02:34:36.468Z,12.98
2023-05-15T02:37:04.436Z,12.92
2023-05-15T02:39:33.279Z,12.88
2023-05-15T02:42:01.468Z,12.87
2023-05-15T02:44:30.505Z,12.88
2023-05-15T02:46:59.251Z,12.88
2023-05-15T02:49:26.830Z,12.86
2023-05-15T02:51:54.365Z,12.82
2023-05-15T02:54:21.557Z,12.84
2023-05-15T02:56:48.963Z,12.85
2023-05-15T02:59:19.698Z,12.79
2023-05-15T03:01:47.714Z,12.73
2023-05-15T03:04:15.445Z,12.71
2023-05-15T03:06:43.187Z,12.71
2023-05-15T03:09:10.439Z,12.77
2023-05-15T03:11:39.054Z,12.73
2023-05-15T03:14:06.905Z,12.70
2023-05-15T03:16:36.621Z,12.72
2023-05-15T03:19:04.810Z,12.73
2023-05-15T03:21:32.361Z,12.71
2023-05-15T03:23:59.572Z,12.70
2023-05-15T03:26:26.939Z,12.69
2023-05-15T03:28:55.353Z,12.69
2023-05-15T03:31:22.548Z,12.69
2023-05-15T03:33:51.039Z,12.66
2023-05-15T03:36:18.641Z,12.67
2023-05-15T03:38:46.451Z,12.70
2023-05-15T03:41:14.368Z,12.74
2023-05-15T03:43:41.573Z,12.76
2023-05-15T03:46:09.607Z,12.73
2023-05-15T03:48:40.986Z,12.70
2023-05-15T03:51:08.588Z,12.70
2023-05-15T03:53:36.297Z,12.71
2023-05-15T03:56:03.615Z,12.68
2023-05-15T03:58:33.659Z,12.66
2023-05-15T04:01:01.170Z,12.63
2023-05-15T04:03:30.082Z,12.66
2023-05-15T04:05:57.602Z,12.69
2023-05-15T04:08:25.368Z,12.71
2023-05-15T04:11:00.023Z,12.74
2023-05-15T04:13:27.375Z,12.79
2023-05-15T04:15:55.916Z,12.78
2023-05-15T04:18:25.360Z,12.79
2023-05-15T04:20:52.852Z,12.77
2023-05-15T04:23:20.502Z,12.71
2023-05-15T04:25:48.431Z,12.65
2023-05-15T04:28:16.558Z,12.65
2023-05-15T04:30:43.750Z,12.69
2023-05-15T04:33:11.081Z,12.72
2023-05-15T04:35:38.890Z,12.68
2023-05-15T04:38:06.136Z,12.65
2023-05-15T04:40:33.261Z,12.69
2023-05-15T04:43:02.897Z,12.71
2023-05-15T04:45:30.974Z,12.68
2023-05-15T04:47:58.187Z,12.69
2023-05-15T04:50:25.880Z,12.74
2023-05-15T04:52:54.038Z,12.74
2023-05-15T04:55:21.204Z,12.73
2023-05-15T04:57:48.729Z,12.75
2023-05-15T05:00:16.120Z,12.72
2023-05-15T05:02:43.779Z,12.69
2023-05-15T05:05:11.212Z,12.71
2023-05-15T05:07:38.810Z,12.69
2023-05-15T05:10:06.776Z,12.62
2023-05-15T05:12:33.920Z,12.61
2023-05-15T05:15:01.428Z,12.64
2023-05-15T05:17:30.221Z,12.66
2023-05-15T05:19:57.361Z,12.67
2023-05-15T05:22:25.141Z,12.66
2023-05-15T05:24:52.280Z,12.68
2023-05-15T05:27:19.462Z,12.71
2023-05-15T05:29:49.275Z,12.73
2023-05-15T05:32:16.616Z,12.74
2023-05-15T05:34:43.730Z,12.71
2023-05-15T05:37:10.832Z,12.71
2023-05-15T05:39:38.273Z,12.74
2023-05-15T05:42:05.534Z,12.80
2023-05-15T05:44:34.546Z,12.81
2023-05-15T05:47:02.153Z,12.80
2023-05-15T05:49:29.273Z,12.81
2023-05-15T05:51:56.375Z,12.83
2023-05-15T05:54:24.221Z,12.81
2023-05-15T05:56:51.369Z,12.76
2023-05-15T05:59:18.607Z,12.73
2023-05-15T06:01:46.336Z,12.79
2023-05-15T06:04:16.228Z,12.85
2023-05-15T06:06:46.733Z,12.88
2023-05-15T06:09:13.825Z,12.86
2023-05-15T06:11:40.962Z,12.84
2023-05-15T06:14:09.099Z,12.84
2023-05-15T06:16:36.339Z,12.83
2023-05-15T06:19:04.606Z,12.87
2023-05-15T06:21:31.908Z,12.88
2023-05-15T06:23:59.140Z,12.89
2023-05-15T06:26:26.408Z,12.91
2023-05-15T06:28:53.499Z,12.94
2023-05-15T06:31:21.156Z,12.94
2023-05-15T06:33:48.716Z,12.93
2023-05-15T06:36:16.677Z,12.92
2023-05-15T06:38:43.968Z,12.91
2023-05-15T06:41:13.435Z,12.93
2023-05-15T06:43:40.673Z,12.91
2023-05-15T06:46:08.896Z,12.89
2023-05-15T06:48:36.125Z,12.92
2023-05-15T06:51:03.894Z,12.93
2023-05-15T06:53:31.103Z,12.95
2023-05-15T06:55:58.453Z,12.98
2023-05-15T06:58:25.921Z,12.97
2023-05-15T07:00:54.221Z,12.93
2023-05-15T07:03:23.505Z,12.90
2023-05-15T07:05:51.799Z,12.91
2023-05-15T07:08:19.427Z,12.89
2023-05-15T07:10:48.365Z,12.85
2023-05-15T07:13:20.731Z,12.88
2023-05-15T07:15:48.206Z,12.92
2023-05-15T07:18:15.423Z,12.95
2023-05-15T07:20:42.862Z,12.94
2023-05-15T07:23:10.211Z,12.95
2023-05-15T07:25:37.393Z,12.95
2023-05-15T07:28:04.954Z,12.95
2023-05-15T07:30:32.169Z,12.95
2023-05-15T07:32:59.351Z,12.98
2023-05-15T07:35:27.520Z,12.97
2023-05-15T07:37:55.412Z,12.96
2023-05-15T07:40:26.134Z,12.98
2023-05-15T07:42:59.903Z,13.01
2023-05-15T07:45:29.462Z,13.02
2023-05-15T07:48:08.896Z,12.99
2023-05-15T07:50:36.790Z,13.04
2023-05-15T07:53:04.287Z,13.16
2023-05-15T07:55:31.406Z,13.20
2023-05-15T07:57:58.854Z,13.22
2023-05-15T08:00:26.392Z,13.19
2023-05-15T08:02:53.798Z,13.22
2023-05-15T08:05:22.851Z,13.18
2023-05-15T08:07:50.349Z,13.12
2023-05-15T08:10:17.638Z,13.16
2023-05-15T08:12:46.752Z,13.22
2023-05-15T08:15:14.352Z,13.25
2023-05-15T08:17:42.056Z,13.27
2023-05-15T08:20:18.618Z,13.32
2023-05-15T08:22:52.221Z,13.35
2023-05-15T08:25:19.415Z,13.37
2023-05-15T08:27:46.555Z,13.43
2023-05-15T08:30:14.024Z,13.43
2023-05-15T08:32:45.380Z,13.44
2023-05-15T08:35:12.698Z,13.51
2023-05-15T08:37:41.388Z,13.58
2023-05-15T08:40:09.281Z,13.61
2023-05-15T08:42:46.968Z,13.65
2023-05-15T08:45:14.435Z,13.73
2023-05-15T08:48:05.823Z,13.76
2023-05-15T08:50:40.355Z,13.81
2023-05-15T08:53:07.901Z,13.90
2023-05-15T08:55:39.727Z,14.09
2023-05-15T08:58:09.625Z,14.25
2023-05-15T09:00:37.170Z,14.47
2023-05-15T09:03:04.994Z,14.69
2023-05-15T09:05:33.097Z,14.76
2023-05-15T09:08:03.990Z,14.65
2023-05-15T09:10:32.791Z,14.56
2023-05-15T09:13:02.167Z,14.50
2023-05-15T09:15:30.165Z,14.49
2023-05-15T09:18:11.247Z,14.57
2023-05-15T09:20:38.473Z,14.75
2023-05-15T09:23:22.322Z,14.95
2023-05-15T09:25:53.454Z,15.12
2023-05-15T09:28:25.685Z,15.19
2023-05-15T09:31:00.287Z,15.20
2023-05-15T09:33:33.031Z,15.18
2023-05-15T09:36:02.855Z,15.09
2023-05-15T09:38:40.072Z,15.01
2023-05-15T09:41:08.368Z,15.04
2023-05-15T09:43:40.330Z,15.12
2023-05-15T09:46:12.571Z,15.19
2023-05-15T09:48:40.615Z,15.35
2023-05-15T09:51:19.359Z,15.57
2023-05-15T09:53:55.252Z,15.83
2023-05-15T09:56:22.818Z,16.08
2023-05-15T09:58:58.763Z,16.34
2023-05-15T10:01:27.136Z,16.49
2023-05-15T10:04:06.001Z,16.51
2023-05-15T10:06:47.640Z,16.49
2023-05-15T10:09:15.609Z,16.46
2023-05-15T10:11:44.937Z,16.41
2023-05-15T10:14:14.007Z,16.37
2023-05-15T10:16:41.701Z,16.39
2023-05-15T10:19:11.188Z,16.52
2023-05-15T10:21:41.000Z,16.66
2023-05-15T10:24:11.532Z,16.71
2023-05-15T10:26:41.485Z,16.75
2023-05-15T10:29:11.856Z,17.00
2023-05-15T10:31:40.099Z,17.39
2023-05-15T10:34:09.325Z,17.62
2023-05-15T10:36:38.215Z,17.60
2023-05-15T10:39:07.267Z,17.44
2023-05-15T10:41:39.449Z,17.42
2023-05-15T10:44:06.926Z,17.51
2023-05-15T10:46:36.268Z,17.58
2023-05-15T10:49:04.906Z,17.51
2023-05-15T10:51:33.219Z,17.29
2023-05-15T10:54:03.486Z,17.08
2023-05-15T10:56:31.239Z,16.96
2023-05-15T10:59:06.892Z,16.90
2023-05-15T11:01:36.642Z,16.97
2023-05-15T11:04:12.550Z,17.10
2023-05-15T11:06:44.336Z,17.24
2023-05-15T11:09:27.921Z,17.30
2023-05-15T11:12:00.928Z,17.32
2023-05-15T11:14:40.039Z,17.37
2023-05-15T11:17:12.641Z,17.30
2023-05-15T11:19:49.262Z,17.25
2023-05-15T11:22:21.802Z,17.18
2023-05-15T11:24:56.475Z,17.06
2023-05-15T11:27:31.749Z,16.96
2023-05-15T11:30:09.147Z,16.90
2023-05-15T11:32:45.881Z,16.88
2023-05-15T11:35:35.264Z,16.85
2023-05-15T11:38:11.367Z,16.77
2023-05-15T11:40:55.555Z,16.67
2023-05-15T11:43:27.718Z,16.53
2023-05-15T11:46:04.407Z,16.41
2023-05-15T11:48:37.440Z,16.37
2023-05-15T11:51:05.924Z,16.35
2023-05-15T11:53:33.817Z,16.38
2023-05-15T11:56:01.696Z,16.36
2023-05-15T11:58:29.403Z,16.22
2023-05-15T12:00:57.603Z,16.07
2023-05-15T12:03:38.214Z,15.97
2023-05-15T12:06:06.115Z,15.90
2023-05-15T12:08:35.957Z,15.87
2023-05-15T12:11:08.172Z,15.80
2023-05-15T12:13:37.067Z,15.74
2023-05-15T12:16:05.131Z,15.75
2023-05-15T12:18:33.252Z,15.75
2023-05-15T12:21:00.824Z,15.81
2023-05-15T12:23:28.504Z,15.81
2023-05-15T12:26:00.548Z,15.78
2023-05-15T12:28:29.789Z,15.83
2023-05-15T12:30:58.079Z,15.83
2023-05-15T12:33:25.841Z,15.76
2023-05-15T12:35:59.953Z,15.70
2023-05-15T12:38:29.027Z,15.69
2023-05-15T12:40:57.547Z,15.74
2023-05-15T12:43:26.166Z,15.84
2023-05-15T12:45:57.969Z,15.94
2023-05-15T12:48:32.627Z,16.00
2023-05-15T12:51:07.950Z,16.06
2023-05-15T12:53:35.926Z,16.12
2023-05-15T12:56:04.199Z,16.12
2023-05-15T12:58:32.045Z,16.18
2023-05-15T13:01:02.401Z,16.26
2023-05-15T13:03:33.284Z,16.40
2023-05-15T13:06:03.489Z,16.53
2023-05-15T13:08:31.107Z,16.68
2023-05-15T13:10:59.762Z,16.73
2023-05-15T13:13:59.832Z,16.79
2023-05-15T13:16:32.661Z,16.87
2023-05-15T13:19:00.298Z,16.91
2023-05-15T13:21:28.144Z,16.94
2023-05-15T13:23:55.570Z,16.97
2023-05-15T13:26:23.153Z,16.98
2023-05-15T13:28:50.614Z,16.90
2023-05-15T13:31:17.962Z,16.78
2023-05-15T13:33:45.684Z,16.72
2023-05-15T13:36:13.170Z,16.67
2023-05-15T13:38:40.494Z,16.62
2023-05-15T13:41:08.823Z,16.66
2023-05-15T13:43:36.080Z,16.75
2023-05-15T13:46:04.243Z,16.86
2023-05-15T13:48:32.075Z,16.93
2023-05-15T13:50:59.515Z,17.05
2023-05-15T13:53:26.900Z,17.15
2023-05-15T13:55:54.645Z,17.16
2023-05-15T13:58:22.654Z,17.19
2023-05-15T14:00:52.562Z,17.18
2023-05-15T14:03:24.528Z,17.17
2023-05-15T14:05:52.337Z,17.16
2023-05-15T14:08:19.596Z,17.26
2023-05-15T14:10:47.216Z,17.49
2023-05-15T14:13:14.488Z,17.71
2023-05-15T14:15:41.645Z,17.85
2023-05-15T14:18:09.420Z,17.95
2023-05-15T14:20:36.823Z,17.97
2023-05-15T14:23:04.205Z,17.94
2023-05-15T14:25:32.259Z,17.95
2023-05-15T14:28:02.086Z,17.97
2023-05-15T14:30:29.844Z,17.94
2023-05-15T14:32:57.759Z,17.85
2023-05-15T14:35:25.338Z,17.79
2023-05-15T14:37:52.755Z,17.70
2023-05-15T14:40:20.711Z,17.60
2023-05-15T14:42:48.134Z,17.48
2023-05-15T14:45:17.557Z,17.39
2023-05-15T14:47:45.434Z,17.27
2023-05-15T14:50:12.756Z,17.19
2023-05-15T14:52:40.546Z,17.23
2023-05-15T14:55:10.007Z,17.28
2023-05-15T14:57:38.494Z,17.27
2023-05-15T15:00:07.209Z,17.23
2023-05-15T15:02:35.197Z,17.23
2023-05-15T15:05:04.122Z,17.22
2023-05-15T15:08:01.913Z,17.16
2023-05-15T15:10:30.419Z,17.11
2023-05-15T15:12:59.111Z,17.11
2023-05-15T15:15:27.305Z,17.12
2023-05-15T15:17:59.366Z,17.15
2023-05-15T15:20:27.799Z,17.20
2023-05-15T15:22:56.269Z,17.25
2023-05-15T15:25:24.411Z,17.27
2023-05-15T15:27:52.591Z,17.25
2023-05-15T15:30:20.060Z,17.25
2023-05-15T15:32:47.678Z,17.27
2023-05-15T15:35:15.292Z,17.28
2023-05-15T15:37:42.868Z,17.30
2023-05-15T15:40:11.673Z,17.36
2023-05-15T15:42:39.310Z,17.46
2023-05-15T15:45:07.260Z,17.52
2023-05-15T15:47:34.528Z,17.59
2023-05-15T15:50:02.418Z,17.71
2023-05-15T15:52:30.207Z,17.78
2023-05-15T15:54:57.728Z,17.78
2023-05-15T15:57:27.916Z,17.71
2023-05-15T15:59:55.434Z,17.55
2023-05-15T16:02:22.941Z,17.50
2023-05-15T16:04:51.259Z,17.49
2023-05-15T16:07:18.816Z,17.44
2023-05-15T16:09:49.322Z,17.44
2023-05-15T16:12:21.750Z,17.40
2023-05-15T16:14:50.327Z,17.34
2023-05-15T16:17:18.556Z,17.34
2023-05-15T16:19:46.458Z,17.38
2023-05-15T16:22:14.069Z,17.35
2023-05-15T16:24:42.488Z,17.30
2023-05-15T16:27:10.257Z,17.28
2023-05-15T16:29:37.659Z,17.27
2023-05-15T16:32:05.643Z,17.28
2023-05-15T16:34:33.749Z,17.26
2023-05-15T16:37:01.259Z,17.20
2023-05-15T16:39:28.810Z,17.14
2023-05-15T16:41:56.067Z,17.13
2023-05-15T16:44:23.328Z,17.18
2023-05-15T16:46:51.477Z,17.24
2023-05-15T16:49:18.800Z,17.30
2023-05-15T16:51:46.107Z,17.30
2023-05-15T16:54:13.856Z,17.20
2023-05-15T16:56:41.281Z,17.07
2023-05-15T16:59:08.896Z,16.94
2023-05-15T17:01:37.834Z,16.82
2023-05-15T17:04:16.307Z,16.75
2023-05-15T17:06:59.671Z,16.72
2023-05-15T17:09:48.424Z,16.71
2023-05-15T17:12:33.899Z,16.70
2023-05-15T17:15:18.530Z,16.78
2023-05-15T17:18:04.739Z,16.84
2023-05-15T17:20:48.025Z,16.79
2023-05-15T17:23:30.921Z,16.72
2023-05-15T17:26:14.257Z,16.63
2023-05-15T17:29:01.282Z,16.54
2023-05-15T17:31:45.389Z,16.41
2023-05-15T17:34:29.276Z,16.34
2023-05-15T17:37:38.005Z,16.26
2023-05-15T17:40:21.132Z,16.16
2023-05-15T17:43:04.833Z,16.07
2023-05-15T17:45:55.776Z,16.03
2023-05-15T17:48:38.797Z,16.01
2023-05-15T17:51:21.438Z,15.99
2023-05-15T17:54:06.217Z,15.95
2023-05-15T17:56:41.060Z,15.90
2023-05-15T17:59:09.148Z,15.83
2023-05-15T18:01:37.008Z,15.75
2023-05-15T18:04:06.576Z,15.67
2023-05-15T18:06:40.265Z,15.57
2023-05-15T18:09:12.323Z,15.49
2023-05-15T18:11:40.193Z,15.45
2023-05-15T18:14:09.328Z,15.40
2023-05-15T18:16:37.280Z,15.28
2023-05-15T18:19:05.160Z,15.18
2023-05-15T18:21:34.148Z,15.10
2023-05-15T18:24:03.447Z,15.07
2023-05-15T18:26:30.978Z,15.07
2023-05-15T18:28:58.325Z,15.04
2023-05-15T18:31:28.434Z,15.01
2023-05-15T18:33:55.884Z,14.98
2023-05-15T18:36:23.906Z,14.94
2023-05-15T18:38:51.352Z,14.86
2023-05-15T18:41:19.379Z,14.74
2023-05-15T18:43:48.913Z,14.63
2023-05-15T18:46:16.531Z,14.57
2023-05-15T18:48:44.609Z,14.55
2023-05-15T18:51:12.431Z,14.54
2023-05-15T18:53:40.001Z,14.51
2023-05-15T18:56:07.412Z,14.47
2023-05-15T18:58:36.194Z,14.42
2023-05-15T19:01:03.527Z,14.38
2023-05-15T19:03:30.927Z,14.29
2023-05-15T19:05:58.609Z,14.21
2023-05-15T19:08:26.297Z,14.17
2023-05-15T19:10:53.649Z,14.13
2023-05-15T19:13:21.618Z,14.06
2023-05-15T19:15:52.827Z,13.97
2023-05-15T19:18:20.127Z,13.81
2023-05-15T19:20:52.355Z,13.69
2023-05-15T19:23:21.061Z,13.65
2023-05-15T19:25:48.589Z,13.62
2023-05-15T19:28:15.922Z,13.64
2023-05-15T19:30:43.795Z,13.65
2023-05-15T19:33:12.462Z,13.65
2023-05-15T19:35:40.132Z,13.69
2023-05-15T19:38:10.223Z,13.68
2023-05-15T19:40:37.329Z,13.69
2023-05-15T19:43:04.742Z,13.74
2023-05-15T19:45:32.461Z,13.74
2023-05-15T19:47:59.951Z,13.70
2023-05-15T19:50:31.969Z,13.66
2023-05-15T19:53:03.220Z,13.68
2023-05-15T19:55:30.868Z,13.70
2023-05-15T19:57:58.069Z,13.76
2023-05-15T20:00:28.400Z,13.77
2023-05-15T20:03:00.523Z,13.72
2023-05-15T20:05:37.351Z,13.71
2023-05-15T20:08:09.904Z,13.73
2023-05-15T20:10:37.175Z,13.71
2023-05-15T20:13:04.324Z,13.78
2023-05-15T20:15:33.053Z,13.85
2023-05-15T20:18:00.890Z,13.92
2023-05-15T20:20:28.386Z,13.98
2023-05-15T20:22:56.071Z,14.01
2023-05-15T20:25:24.342Z,14.06
2023-05-15T20:27:55.978Z,14.09
2023-05-15T20:30:29.131Z,14.10
2023-05-15T20:32:57.952Z,14.11
2023-05-15T20:35:25.256Z,14.11
2023-05-15T20:37:52.725Z,14.09
2023-05-15T20:40:22.641Z,14.08
2023-05-15T20:42:50.956Z,14.07
2023-05-15T20:45:19.364Z,14.04
2023-05-15T20:47:47.019Z,13.99
2023-05-15T20:50:14.355Z,13.93
2023-05-15T20:52:41.598Z,13.92
2023-05-15T20:55:19.272Z,13.89
2023-05-15T20:57:48.956Z,13.86
2023-05-15T21:00:17.632Z,13.82
2023-05-15T21:02:46.312Z,13.78
2023-05-15T21:05:14.906Z,13.76
2023-05-15T21:07:42.654Z,13.73
2023-05-15T21:10:12.692Z,13.66
2023-05-15T21:12:40.403Z,13.57
2023-05-15T21:15:08.681Z,13.51
2023-05-15T21:17:42.340Z,13.49
2023-05-15T21:20:10.109Z,13.46
2023-05-15T21:22:37.499Z,13.35
2023-05-15T21:25:06.532Z,13.27
2023-05-15T21:27:34.334Z,13.25
2023-05-15T21:30:02.444Z,13.27
2023-05-15T21:32:29.812Z,13.27
2023-05-15T21:34:57.163Z,13.25
2023-05-15T21:37:24.733Z,13.25
2023-05-15T21:39:51.989Z,13.20
2023-05-15T21:42:19.214Z,13.19
2023-05-15T21:44:46.884Z,13.20
2023-05-15T21:47:14.197Z,13.22
2023-05-15T21:49:41.469Z,13.21
2023-05-15T21:52:09.180Z,13.19
2023-05-15T21:54:36.474Z,13.20
2023-05-15T21:57:03.896Z,13.19
2023-05-15T21:59:31.716Z,13.21
2023-05-15T22:01:59.332Z,13.22
2023-05-15T22:04:28.386Z,13.23
2023-05-15T22:06:55.981Z,13.22
2023-05-15T22:09:23.256Z,13.20
2023-05-15T22:11:50.648Z,13.20
2023-05-15T22:14:18.232Z,13.17
2023-05-15T22:16:45.604Z,13.13
2023-05-15T22:19:28.557Z,13.13
2023-05-15T22:22:04.127Z,13.13
2023-05-15T22:24:32.097Z,13.14
2023-05-15T22:26:59.873Z,13.15
2023-05-15T22:29:27.420Z,13.13
2023-05-15T22:31:55.852Z,13.07
2023-05-15T22:34:24.965Z,13.00
2023-05-15T22:39:24.615Z,12.81
2023-05-15T22:41:51.890Z,12.73
2023-05-15T22:44:19.400Z,12.63
2023-05-15T22:46:46.653Z,12.61
2023-05-15T22:49:18.698Z,12.66
2023-05-15T22:51:46.618Z,12.68
2023-05-15T22:54:13.873Z,12.67
2023-05-15T22:56:41.113Z,12.67
2023-05-15T22:59:08.863Z,12.67
2023-05-15T23:01:36.208Z,12.67
2023-05-15T23:04:04.696Z,12.68
2023-05-15T23:06:32.082Z,12.69
2023-05-15T23:09:00.664Z,12.72
2023-05-15T23:11:28.245Z,12.72
2023-05-15T23:13:57.215Z,12.74
2023-05-15T23:16:25.298Z,12.76
2023-05-15T23:18:52.808Z,12.77
2023-05-15T23:21:20.489Z,12.79
2023-05-15T23:23:47.967Z,12.80
2023-05-15T23:26:15.561Z,12.76
2023-05-15T23:28:43.121Z,12.78
2023-05-15T23:31:12.710Z,12.83
2023-05-15T23:33:40.679Z,12.84
2023-05-15T23:36:08.416Z,12.88
2023-05-15T23:38:35.666Z,12.90
2023-05-15T23:41:03.426Z,12.91
2023-05-15T23:43:31.307Z,12.91
2023-05-15T23:45:58.556Z,12.89
2023-05-15T23:48:25.840Z,12.89
2023-05-15T23:50:54.323Z,12.91
2023-05-15T23:53:21.735Z,12.94
2023-05-15T23:55:48.942Z,12.97
2023-05-15T23:58:16.439Z,13.00
